To NAV CANADA Home Page Login to a new session Search on AWWS site Feedback and Comments Disclaimer Vers la page française équivalente Tips FAQ What's new on the site To the Forecasts and Observations / NOTAM section To "File a Flight Plan" website Publications and other links Update of the User's profile FIC Telephone Numbers My Weather Data Folder Route Weather Data Regional Weather Data Local Weather Data To the Forecasts and Observations / NOTAM section
Request Generated 01/17/2017 at 04:51:25 UTC . Weather information available at that time is displayed.

METAR/TAF

MONTREAL/PIERRE-ELLIOTT-TRUDEAU INTL/QC    

METAR CYUL 170400Z 26010G17KT 15SM FEW045 BKN110 M00/M04 A3021 RMK
SC2AC4 SLP233=
METAR CYUL 170300Z 24010KT 15SM OVC110 M00/M04 A3020 RMK AC8 SLP229=
METAR CYUL 170200Z 24010KT 15SM BKN100 BKN130 M00/M04 A3020 RMK
AC6AC1 SLP231=

TAF CYUL 170238Z 1703/1724 24012KT P6SM SCT030 BKN100
FM170600 25005KT P6SM FEW008 BKN025
BECMG 1707/1709 VRB03KT
BECMG 1714/1716 05012KT
FM171800 06012KT P6SM SCT030 BKN200
FM172200 03012KT P6SM BKN025 OVC100
RMK NXT FCST BY 170600Z=
Your time UTC time
Weather data provided by Environment Canada and NAV CANADA